Aérodrome :
LOGIN :

S'inscrire | Disclaimer

   EN    FR    IT 

 










Légende :    VFR   VFR Marginal   IFR   IFR Intensif   IFR Très Intensif
Visi : 
Plafond : 
>= 8 km
>= 3000ft
5 à 8 km
1000 à 3000 ft
1500m à 5 km
500 à 1000 ft
800 à 1500m
200 à 500 ft
< 800m
< 200 ft
Symboles :   Orages  Brouillard  Fortes neiges  Fortes précipitations  Vent > 20 kt
SIGMETs :   Divers  Orages  Givrage  Turbulence  Onde Orograph.  Cendres Volcan.






- Altitude de l'aérodrome : 230 ft


ETHB - Buckeburg Army

DERNIER METAR :
  • 300420Z 25011KT 5000 -DZRA BR FEW007 BKN010 BKN028 13/12 Q1013 GRN

METARs EXPIRÉS :
  • 300320Z 25012KT 6000 -RA FEW007 BKN012 BKN020 13/11 Q1013 GRN
  • 300250Z 25012KT 6000 -RA FEW007 BKN015 13/11 Q1013 WHT
  • 300220Z 24012KT 4500 -DZRA FEW007 BKN010 BKN030 12/11 Q1013 GRN
  • 300204Z 24010KT 4500 -DZRA BKN007 BKN028 12/11 Q1013 GRN
  • 300120Z 24011KT 7000 -DZ OVC007 12/11 Q1013 RERA GRN

Prévision TAF périmée.



MET'MAP, la Météo Aéronautique d'un coup d'oeil ! - Copyright ORBIFLY Décembre 2007 - Disclaimer

ORBIFLY MET'MAP TEAM :

Programmation & Développement : Alexandra Zaïnal
Sur une idée originale de : Baudouin d'Aumeries
Assistance à la programmation : Marc-Olivier Méhu
Soutien technique & logistique : Manuel Goepfert

Contact : metmap@orbifly.com




SOURCES & CREDITS :

   NOAA